createdAt,value
2019-01-02T00:00:53.700Z,90.70
2019-01-02T00:01:58.811Z,90.80
2019-01-02T00:03:04.277Z,90.80
2019-01-02T00:04:12.149Z,90.80
2019-01-02T00:05:17.183Z,91.00
2019-01-02T00:06:22.297Z,91.00
2019-01-02T00:07:27.813Z,91.20
2019-01-02T00:08:32.970Z,91.20
2019-01-02T00:09:38.180Z,91.20
2019-01-02T00:10:44.699Z,91.10
2019-01-02T00:11:49.731Z,91.00
2019-01-02T00:12:54.775Z,91.00
2019-01-02T00:14:00.287Z,91.00
2019-01-02T00:15:05.623Z,91.10
2019-01-02T00:16:10.719Z,91.10
2019-01-02T00:17:16.196Z,91.20
2019-01-02T00:18:21.308Z,91.20
2019-01-02T00:19:26.602Z,91.10
2019-01-02T00:20:32.192Z,91.10
2019-01-02T00:21:37.247Z,91.20
2019-01-02T00:22:42.333Z,91.10
2019-01-02T00:23:47.457Z,91.00
2019-01-02T00:24:52.858Z,90.90
2019-01-02T00:25:59.172Z,90.50
2019-01-02T00:27:04.323Z,90.50
2019-01-02T00:28:09.675Z,90.40
2019-01-02T00:29:14.775Z,90.40
2019-01-02T00:30:19.876Z,90.40
2019-01-02T00:31:25.073Z,90.50
2019-01-02T00:32:30.168Z,90.50
2019-01-02T00:33:35.315Z,90.30
2019-01-02T00:34:40.710Z,90.40
2019-01-02T00:35:45.872Z,90.50
2019-01-02T00:36:51.941Z,90.50
2019-01-02T00:37:57.272Z,90.50
2019-01-02T00:39:02.408Z,90.50
2019-01-02T00:40:09.978Z,90.70
2019-01-02T00:41:15.456Z,90.70
2019-01-02T00:42:20.575Z,90.80
2019-01-02T00:43:25.802Z,90.70
2019-01-02T00:44:31.333Z,90.70
2019-01-02T00:45:36.500Z,90.90
2019-01-02T00:46:41.582Z,90.80
2019-01-02T00:47:48.034Z,90.80
2019-01-02T00:48:53.165Z,90.80
2019-01-02T00:49:58.301Z,90.80
2019-01-02T00:51:03.941Z,90.90
2019-01-02T00:52:09.028Z,90.80
2019-01-02T00:53:14.074Z,90.90
2019-01-02T00:54:19.737Z,91.00
2019-01-02T00:55:25.049Z,90.80
2019-01-02T00:56:30.119Z,90.90
2019-01-02T00:57:35.628Z,90.90
2019-01-02T00:58:40.673Z,91.00
2019-01-02T00:59:45.836Z,91.00
2019-01-02T01:00:51.217Z,90.90
2019-01-02T01:01:56.381Z,91.00
2019-01-02T01:03:01.855Z,91.00
2019-01-02T01:04:07.080Z,90.90
2019-01-02T01:05:12.202Z,90.90
2019-01-02T01:06:17.823Z,90.80
2019-01-02T01:07:22.984Z,90.70
2019-01-02T01:08:28.148Z,90.60
2019-01-02T01:09:33.624Z,90.60
2019-01-02T01:10:38.756Z,90.60
2019-01-02T01:11:43.937Z,90.50
2019-01-02T01:12:49.280Z,90.40
2019-01-02T01:13:54.399Z,90.40
2019-01-02T01:14:59.492Z,90.50
2019-01-02T01:16:05.025Z,90.40
2019-01-02T01:17:10.125Z,90.30
2019-01-02T01:18:15.313Z,90.10
2019-01-02T01:19:20.846Z,89.90
2019-01-02T01:20:26.003Z,89.90
2019-01-02T01:21:31.103Z,89.80
2019-01-02T01:22:36.588Z,89.70
2019-01-02T01:23:41.687Z,89.80
2019-01-02T01:24:46.741Z,89.80
2019-01-02T01:25:52.325Z,89.80
2019-01-02T01:26:57.366Z,89.70
2019-01-02T01:28:02.394Z,89.50
2019-01-02T01:29:07.486Z,89.10
2019-01-02T01:30:12.918Z,88.90
2019-01-02T01:31:17.948Z,88.90
2019-01-02T01:32:23.110Z,89.10
2019-01-02T01:33:28.643Z,89.20
2019-01-02T01:34:33.751Z,89.30
2019-01-02T01:35:38.817Z,89.50
2019-01-02T01:36:43.828Z,89.40
2019-01-02T01:37:54.566Z,89.50
2019-01-02T01:38:59.850Z,89.30
2019-01-02T01:40:05.472Z,89.30
2019-01-02T01:41:10.581Z,89.20
2019-01-02T01:42:16.053Z,89.20
2019-01-02T01:43:21.139Z,89.30
2019-01-02T01:44:27.242Z,89.30
2019-01-02T01:45:32.669Z,89.40
2019-01-02T01:46:37.769Z,89.30
2019-01-02T01:47:42.956Z,89.10
2019-01-02T01:48:48.261Z,89.20
2019-01-02T01:49:53.359Z,89.10
2019-01-02T01:50:58.457Z,89.20
2019-01-02T01:52:03.610Z,89.30
2019-01-02T01:53:09.302Z,89.50
2019-01-02T01:54:14.606Z,89.00
2019-01-02T01:55:20.022Z,89.00
2019-01-02T01:56:25.668Z,88.90
2019-01-02T01:57:30.826Z,88.70
2019-01-02T01:58:36.048Z,88.60
2019-01-02T01:59:41.627Z,88.50
2019-01-02T02:00:46.777Z,88.70
2019-01-02T02:01:51.888Z,88.50
2019-01-02T02:02:58.148Z,88.70
2019-01-02T02:04:03.377Z,88.80
2019-01-02T02:05:08.984Z,88.70
2019-01-02T02:06:14.591Z,88.80
2019-01-02T02:07:19.992Z,88.60
2019-01-02T02:08:25.164Z,88.40
2019-01-02T02:09:30.325Z,88.50
2019-01-02T02:10:35.508Z,88.30
2019-01-02T02:11:40.902Z,88.30
2019-01-02T02:12:45.927Z,88.30
2019-01-02T02:13:51.267Z,88.10
2019-01-02T02:14:57.075Z,88.00
2019-01-02T02:16:03.268Z,87.60
2019-01-02T02:17:08.395Z,87.30
2019-01-02T02:18:13.532Z,87.40
2019-01-02T02:19:19.192Z,87.00
2019-01-02T02:20:24.306Z,87.00
2019-01-02T02:21:29.877Z,87.20
2019-01-02T02:22:35.477Z,87.00
2019-01-02T02:23:40.680Z,87.10
2019-01-02T02:24:45.908Z,87.10
2019-01-02T02:25:51.787Z,87.10
2019-01-02T02:26:56.996Z,87.30
2019-01-02T02:28:02.260Z,87.20
2019-01-02T02:29:10.564Z,87.10
2019-01-02T02:30:16.058Z,87.20
2019-01-02T02:31:21.437Z,87.70
2019-01-02T02:32:26.911Z,87.90
2019-01-02T02:33:31.941Z,87.70
2019-01-02T02:34:37.432Z,87.50
2019-01-02T02:35:42.546Z,87.80
2019-01-02T02:36:47.941Z,88.00
2019-01-02T02:37:53.410Z,88.00
2019-01-02T02:38:58.420Z,88.10
2019-01-02T02:40:04.098Z,88.20
2019-01-02T02:41:10.394Z,87.90
2019-01-02T02:42:15.861Z,87.80
2019-01-02T02:43:21.233Z,87.70
2019-01-02T02:44:26.332Z,87.70
2019-01-02T02:45:31.713Z,87.40
2019-01-02T02:46:37.284Z,86.90
2019-01-02T02:47:42.291Z,86.20
2019-01-02T02:48:47.697Z,85.90
2019-01-02T02:49:53.361Z,85.50
2019-01-02T02:50:58.466Z,85.90
2019-01-02T02:52:03.888Z,85.90
2019-01-02T02:53:08.959Z,85.60
2019-01-02T02:54:14.370Z,85.30
2019-01-02T02:55:22.557Z,85.60
2019-01-02T02:56:27.586Z,85.50
2019-01-02T02:57:33.037Z,85.60
2019-01-02T02:58:38.085Z,85.30
2019-01-02T02:59:43.433Z,85.30
2019-01-02T03:00:48.432Z,85.30
2019-01-02T03:01:53.829Z,85.00
2019-01-02T03:02:59.393Z,84.30
2019-01-02T03:04:04.543Z,84.30
2019-01-02T03:05:11.359Z,84.20
2019-01-02T03:06:16.793Z,84.10
2019-01-02T03:07:21.873Z,83.90
2019-01-02T03:08:27.361Z,83.70
2019-01-02T03:09:32.900Z,83.70
2019-01-02T03:10:38.016Z,83.60
2019-01-02T03:11:43.472Z,83.30
2019-01-02T03:12:48.488Z,83.10
2019-01-02T03:13:54.025Z,83.00
2019-01-02T03:14:59.717Z,83.20
2019-01-02T03:16:05.136Z,83.20
2019-01-02T03:17:10.517Z,83.50
2019-01-02T03:18:15.994Z,83.60
2019-01-02T03:19:20.989Z,83.30
2019-01-02T03:20:26.552Z,83.40
2019-01-02T03:21:43.247Z,83.50
2019-01-02T03:22:48.596Z,83.60
2019-01-02T03:23:53.968Z,83.60
2019-01-02T03:24:59.041Z,83.80
2019-01-02T03:26:04.529Z,84.00
2019-01-02T03:27:09.951Z,84.20
2019-01-02T03:28:26.389Z,84.30
2019-01-02T03:29:42.985Z,84.10
2019-01-02T03:30:59.739Z,84.20
2019-01-02T03:32:16.472Z,84.20
2019-01-02T03:33:37.133Z,84.00
2019-01-02T03:34:53.628Z,84.00
2019-01-02T03:36:10.289Z,84.10
2019-01-02T03:37:27.333Z,84.30
2019-01-02T03:38:43.948Z,84.40
2019-01-02T03:40:00.253Z,84.40
2019-01-02T03:41:16.698Z,84.50
2019-01-02T03:42:34.222Z,84.60
2019-01-02T03:43:50.705Z,84.80
2019-01-02T03:45:08.002Z,84.80
2019-01-02T03:46:24.497Z,84.90
2019-01-02T03:47:40.965Z,85.10
2019-01-02T03:48:57.907Z,85.00
2019-01-02T03:50:15.145Z,85.40
2019-01-02T03:51:31.734Z,85.40
2019-01-02T03:52:48.101Z,85.40
2019-01-02T03:54:04.765Z,85.60
2019-01-02T03:55:21.383Z,85.50
2019-01-02T03:56:37.699Z,85.40
2019-01-02T03:57:54.107Z,85.70
2019-01-02T03:59:10.769Z,85.80
2019-01-02T04:00:27.144Z,85.90
2019-01-02T04:01:43.385Z,86.10
2019-01-02T04:02:59.675Z,86.10
2019-01-02T04:04:16.435Z,86.30
2019-01-02T04:05:32.833Z,86.30
2019-01-02T04:06:49.132Z,86.10
2019-01-02T04:08:05.903Z,86.10
2019-01-02T04:09:22.809Z,86.10
2019-01-02T04:10:39.408Z,86.00
2019-01-02T04:11:56.213Z,86.20
2019-01-02T04:13:12.743Z,86.00
2019-01-02T04:14:29.952Z,86.00
2019-01-02T04:15:46.533Z,86.00
2019-01-02T04:17:03.031Z,85.80
2019-01-02T04:18:19.559Z,85.80
2019-01-02T04:19:36.014Z,85.60
2019-01-02T04:20:52.508Z,85.60
2019-01-02T04:22:09.089Z,85.40
2019-01-02T04:23:26.328Z,85.50
2019-01-02T04:24:42.696Z,85.40
2019-01-02T04:25:59.158Z,85.50
2019-01-02T04:27:15.604Z,85.40
2019-01-02T04:28:31.961Z,85.50
2019-01-02T04:29:48.396Z,85.50
2019-01-02T04:31:05.003Z,85.50
2019-01-02T04:32:21.480Z,85.30
2019-01-02T04:33:37.897Z,85.10
2019-01-02T04:34:54.236Z,85.20
2019-01-02T04:36:10.832Z,85.10
2019-01-02T04:37:27.333Z,85.10
2019-01-02T04:38:44.192Z,85.10
2019-01-02T04:40:00.804Z,84.90
2019-01-02T04:41:17.260Z,84.70
2019-01-02T04:42:33.965Z,84.50
2019-01-02T04:43:50.790Z,84.50
2019-01-02T04:45:07.332Z,84.50
2019-01-02T04:46:23.889Z,84.60
2019-01-02T04:47:40.432Z,84.50
2019-01-02T04:48:57.602Z,84.30
2019-01-02T04:50:14.225Z,84.30
2019-01-02T04:51:30.681Z,84.30
2019-01-02T04:52:47.053Z,84.10
2019-01-02T04:54:03.495Z,84.30
2019-01-02T04:55:19.913Z,84.30
2019-01-02T04:56:36.396Z,84.30
2019-01-02T04:57:53.069Z,83.80
2019-01-02T04:59:09.338Z,83.80
2019-01-02T05:00:26.013Z,83.90
2019-01-02T05:01:42.826Z,84.10
2019-01-02T05:02:59.796Z,83.90
2019-01-02T05:04:16.441Z,83.90
2019-01-02T05:05:33.141Z,83.90
2019-01-02T05:06:48.436Z,83.90
2019-01-02T05:08:05.288Z,83.80
2019-01-02T05:09:22.146Z,83.50
2019-01-02T05:10:38.676Z,83.60
2019-01-02T05:11:55.274Z,83.80
2019-01-02T05:13:11.550Z,83.80
2019-01-02T05:14:28.245Z,83.80
2019-01-02T05:15:45.231Z,83.70
2019-01-02T05:17:01.983Z,83.80
2019-01-02T05:18:18.302Z,84.00
2019-01-02T05:19:35.536Z,83.90
2019-01-02T05:20:52.013Z,83.80
2019-01-02T05:22:08.289Z,84.00
2019-01-02T05:23:24.708Z,84.00
2019-01-02T05:24:42.201Z,84.30
2019-01-02T05:25:58.745Z,84.20
2019-01-02T05:27:15.509Z,84.40
2019-01-02T05:28:32.038Z,84.50
2019-01-02T05:29:50.163Z,84.40
2019-01-02T05:31:07.430Z,84.40
2019-01-02T05:32:23.686Z,84.70
2019-01-02T05:33:40.584Z,84.60
2019-01-02T05:34:56.949Z,84.70
2019-01-02T05:36:13.571Z,84.90
2019-01-02T05:37:30.674Z,84.80
2019-01-02T05:38:47.802Z,84.60
2019-01-02T05:40:04.128Z,84.90
2019-01-02T05:41:20.756Z,85.00
2019-01-02T05:42:37.228Z,84.80
2019-01-02T05:43:53.602Z,84.60
2019-01-02T05:45:09.851Z,84.70
2019-01-02T05:46:26.218Z,85.10
2019-01-02T05:47:42.601Z,85.00
2019-01-02T05:48:59.619Z,85.10
2019-01-02T05:50:16.809Z,85.10
2019-01-02T05:51:33.825Z,85.50
2019-01-02T05:52:50.136Z,85.70
2019-01-02T05:54:06.925Z,85.50
2019-01-02T05:55:24.025Z,85.20
2019-01-02T05:56:40.501Z,85.20
2019-01-02T05:57:57.139Z,85.40
2019-01-02T05:59:14.381Z,85.30
2019-01-02T06:00:31.461Z,85.10
2019-01-02T06:01:48.056Z,85.00
2019-01-02T06:03:04.444Z,85.00
2019-01-02T06:04:21.145Z,84.90
2019-01-02T06:05:37.869Z,84.80
2019-01-02T06:06:54.260Z,85.20
2019-01-02T06:08:11.102Z,85.10
2019-01-02T06:09:27.673Z,84.80
2019-01-02T06:10:44.117Z,85.00
2019-01-02T06:12:01.016Z,85.30
2019-01-02T06:13:17.269Z,85.10
2019-01-02T06:14:33.908Z,85.20
2019-01-02T06:15:51.108Z,84.70
2019-01-02T06:17:07.597Z,84.80
2019-01-02T06:18:24.005Z,84.80
2019-01-02T06:19:41.084Z,84.90
2019-01-02T06:20:58.188Z,84.90
2019-01-02T06:22:15.080Z,84.90
2019-01-02T06:23:31.662Z,84.70
2019-01-02T06:24:48.153Z,84.70
2019-01-02T06:26:04.750Z,84.50
2019-01-02T06:27:21.153Z,84.30
2019-01-02T06:28:38.281Z,84.10
2019-01-02T06:29:54.799Z,84.00
2019-01-02T06:31:11.251Z,84.20
2019-01-02T06:32:27.810Z,84.10
2019-01-02T06:33:44.644Z,84.20
2019-01-02T06:35:01.863Z,84.10
2019-01-02T06:36:18.628Z,83.70
2019-01-02T06:37:33.845Z,83.80
2019-01-02T06:40:40.721Z,84.30
2019-01-02T06:41:57.179Z,84.10
2019-01-02T06:43:13.783Z,84.00
2019-01-02T06:44:30.203Z,84.10
2019-01-02T06:45:46.938Z,83.90
2019-01-02T06:47:03.366Z,84.20
2019-01-02T06:48:20.082Z,83.90
2019-01-02T06:49:36.556Z,83.50
2019-01-02T06:50:53.165Z,83.50
2019-01-02T06:52:10.381Z,83.50
2019-01-02T06:53:26.864Z,83.70
2019-01-02T06:54:43.212Z,83.50
2019-01-02T06:56:00.138Z,83.70
2019-01-02T06:57:16.566Z,83.80
2019-01-02T06:58:33.579Z,83.70
2019-01-02T06:59:49.914Z,83.40
2019-01-02T07:01:06.750Z,83.50
2019-01-02T07:02:23.216Z,83.80
2019-01-02T07:03:40.367Z,83.60
2019-01-02T07:04:56.931Z,83.20
2019-01-02T07:06:13.204Z,83.30
2019-01-02T07:07:31.300Z,83.40
2019-01-02T07:08:48.449Z,83.30
2019-01-02T07:10:05.197Z,82.80
2019-01-02T07:11:22.203Z,82.80
2019-01-02T07:12:38.670Z,82.70
2019-01-02T07:13:55.439Z,82.70
2019-01-02T07:15:12.493Z,82.70
2019-01-02T07:16:28.833Z,82.40
2019-01-02T07:17:46.005Z,82.50
2019-01-02T07:19:03.171Z,82.40
2019-01-02T07:20:19.740Z,82.30
2019-01-02T07:21:36.810Z,82.20
2019-01-02T07:22:54.885Z,82.30
2019-01-02T07:24:10.137Z,82.00
2019-01-02T07:25:34.228Z,82.30
2019-01-02T07:26:50.668Z,82.10
2019-01-02T07:28:07.191Z,82.00
2019-01-02T07:29:23.673Z,82.00
2019-01-02T07:30:40.335Z,82.10
2019-01-02T07:31:56.953Z,82.30
2019-01-02T07:33:13.760Z,82.50
2019-01-02T07:34:30.948Z,82.50
2019-01-02T07:35:47.498Z,82.60
2019-01-02T07:39:05.237Z,82.40
2019-01-02T07:40:45.393Z,82.50
2019-01-02T07:42:28.528Z,82.40
2019-01-02T07:43:45.326Z,82.20
2019-01-02T07:45:02.497Z,82.10
2019-01-02T07:46:39.101Z,82.30
2019-01-02T07:48:22.356Z,82.30
2019-01-02T07:49:38.805Z,82.30
2019-01-02T07:51:00.235Z,82.10
2019-01-02T07:52:13.445Z,82.20
2019-01-02T07:53:29.774Z,82.20
2019-01-02T07:54:46.553Z,82.40
2019-01-02T07:56:03.816Z,82.40
2019-01-02T07:57:20.604Z,82.50
2019-01-02T07:58:36.885Z,82.50
2019-01-02T07:59:53.457Z,82.50
2019-01-02T08:01:10.657Z,82.50
2019-01-02T08:02:27.069Z,82.30
2019-01-02T08:03:44.148Z,82.00
2019-01-02T08:05:00.624Z,81.80
2019-01-02T08:06:16.888Z,81.70
2019-01-02T08:07:33.678Z,81.60
2019-01-02T08:08:50.277Z,81.40
2019-01-02T08:10:06.609Z,81.50
2019-01-02T08:11:22.996Z,81.60
2019-01-02T08:12:39.900Z,81.50
2019-01-02T08:13:56.765Z,81.40
2019-01-02T08:15:13.240Z,81.30
2019-01-02T08:16:31.477Z,81.30
2019-01-02T08:17:48.006Z,81.40
2019-01-02T08:19:04.640Z,81.60
2019-01-02T08:20:21.325Z,81.50
2019-01-02T08:21:37.942Z,81.40
2019-01-02T08:22:55.271Z,81.10
2019-01-02T08:24:11.577Z,81.20
2019-01-02T08:25:28.116Z,81.20
2019-01-02T08:26:45.364Z,81.30
2019-01-02T08:28:19.668Z,81.20
2019-01-02T08:29:47.506Z,81.30
2019-01-02T08:31:04.044Z,81.40
2019-01-02T08:32:20.653Z,81.40
2019-01-02T08:33:37.160Z,81.60
2019-01-02T08:35:14.684Z,81.80
2019-01-02T08:36:31.024Z,81.50
2019-01-02T08:37:48.131Z,81.40
2019-01-02T08:39:04.952Z,81.20
2019-01-02T08:40:21.445Z,81.10
2019-01-02T08:41:38.545Z,81.40
2019-01-02T08:42:55.452Z,81.50
2019-01-02T08:44:11.809Z,81.10
2019-01-02T08:45:28.416Z,80.70
2019-01-02T08:46:44.782Z,79.80
2019-01-02T08:48:01.127Z,78.70
2019-01-02T08:49:18.050Z,77.60
2019-01-02T08:50:35.141Z,76.40
2019-01-02T08:51:51.545Z,75.50
2019-01-02T08:53:08.266Z,74.90
2019-01-02T08:54:24.922Z,74.60
2019-01-02T08:55:41.270Z,73.70
2019-01-02T08:56:57.724Z,73.00
2019-01-02T08:58:14.612Z,72.70
2019-01-02T08:59:31.182Z,72.60
2019-01-02T09:00:47.633Z,72.40
2019-01-02T09:02:04.429Z,72.10
2019-01-02T09:03:20.708Z,71.90
2019-01-02T09:04:37.286Z,71.60
2019-01-02T09:05:53.720Z,71.40
2019-01-02T09:07:10.216Z,71.50
2019-01-02T09:08:26.659Z,71.60
2019-01-02T09:09:43.620Z,71.70
2019-01-02T09:11:00.141Z,72.10
2019-01-02T09:12:20.360Z,72.00
2019-01-02T09:13:37.217Z,71.90
2019-01-02T09:14:54.537Z,72.50
2019-01-02T09:16:10.976Z,72.50
2019-01-02T09:17:28.052Z,72.80
2019-01-02T09:18:45.130Z,73.10
2019-01-02T09:20:22.488Z,73.20
2019-01-02T09:22:05.724Z,73.20
2019-01-02T09:23:22.205Z,73.90
2019-01-02T09:24:38.732Z,74.00
2019-01-02T09:25:55.244Z,74.30
2019-01-02T09:27:12.407Z,74.60
2019-01-02T09:28:28.788Z,74.90
2019-01-02T09:29:45.175Z,75.30
2019-01-02T09:31:01.598Z,75.60
2019-01-02T09:32:18.430Z,76.00
2019-01-02T09:33:34.822Z,75.80
2019-01-02T09:34:51.366Z,75.80
2019-01-02T09:36:08.162Z,75.40
2019-01-02T09:37:24.996Z,74.90
2019-01-02T09:38:41.806Z,75.00
2019-01-02T09:39:58.224Z,74.60
2019-01-02T09:41:14.637Z,74.10
2019-01-02T09:42:31.297Z,73.60
2019-01-02T09:43:47.623Z,73.70
2019-01-02T09:45:04.801Z,73.80
2019-01-02T09:46:21.133Z,73.80
2019-01-02T09:47:37.648Z,74.30
2019-01-02T09:48:54.097Z,74.50
2019-01-02T09:50:10.696Z,75.10
2019-01-02T09:51:27.205Z,75.70
2019-01-02T09:52:44.437Z,76.20
2019-01-02T09:54:01.385Z,76.50
2019-01-02T09:55:18.500Z,76.80
2019-01-02T09:56:34.981Z,76.90
2019-01-02T09:57:51.377Z,77.30
2019-01-02T09:59:07.968Z,77.90
2019-01-02T10:00:24.869Z,78.10
2019-01-02T10:01:42.060Z,78.10
2019-01-02T10:02:58.884Z,78.20
2019-01-02T10:04:15.575Z,78.40
2019-01-02T10:05:32.274Z,79.10
2019-01-02T10:06:49.161Z,79.30
2019-01-02T10:08:05.949Z,79.60
2019-01-02T10:09:22.985Z,80.00
2019-01-02T10:11:03.073Z,80.10
2019-01-02T10:12:46.249Z,80.40
2019-01-02T10:14:02.705Z,80.90
2019-01-02T10:15:19.820Z,81.00
2019-01-02T10:16:37.057Z,81.70
2019-01-02T10:17:53.390Z,82.60
2019-01-02T10:19:10.518Z,82.60
2019-01-02T10:20:26.901Z,83.10
2019-01-02T10:21:43.246Z,83.80
2019-01-02T10:23:23.707Z,83.70
2019-01-02T10:25:06.879Z,84.30
2019-01-02T10:26:23.876Z,82.90
2019-01-02T10:27:41.069Z,82.20
2019-01-02T10:28:57.400Z,81.00
2019-01-02T10:30:14.360Z,80.70
2019-01-02T10:31:31.517Z,80.50
2019-01-02T10:32:48.153Z,80.30
2019-01-02T10:34:04.537Z,80.60
2019-01-02T10:35:20.927Z,80.60
2019-01-02T10:36:37.450Z,80.90
2019-01-02T10:37:54.361Z,80.80
2019-01-02T10:39:10.936Z,80.80
2019-01-02T10:40:27.910Z,80.60
2019-01-02T10:41:44.916Z,80.90
2019-01-02T10:43:01.776Z,81.50
2019-01-02T10:44:18.528Z,81.20
2019-01-02T10:45:34.977Z,81.50
2019-01-02T10:46:51.378Z,81.40
2019-01-02T10:48:07.700Z,81.50
2019-01-02T10:49:24.841Z,81.90
2019-01-02T10:50:42.032Z,81.60
2019-01-02T10:51:58.696Z,81.70
2019-01-02T10:53:15.517Z,81.40
2019-01-02T10:54:32.470Z,81.80
2019-01-02T10:55:49.596Z,81.70
2019-01-02T10:57:06.128Z,81.40
2019-01-02T10:58:23.405Z,81.50
2019-01-02T10:59:39.897Z,82.00
2019-01-02T11:00:56.889Z,82.20
2019-01-02T11:02:14.091Z,82.10
2019-01-02T11:03:31.081Z,82.10
2019-01-02T11:04:47.438Z,82.10
2019-01-02T11:06:04.188Z,81.80
2019-01-02T11:07:20.941Z,81.70
2019-01-02T11:08:37.300Z,81.40
2019-01-02T11:09:54.322Z,81.30
2019-01-02T11:11:10.893Z,81.50
2019-01-02T11:12:27.396Z,81.60
2019-01-02T11:13:44.006Z,81.20
2019-01-02T11:15:00.354Z,80.30
2019-01-02T11:16:17.002Z,79.90
2019-01-02T11:17:33.908Z,80.00
2019-01-02T11:18:50.501Z,80.10
2019-01-02T11:20:07.441Z,80.10
2019-01-02T11:21:23.751Z,80.20
2019-01-02T11:22:40.808Z,80.10
2019-01-02T11:23:58.105Z,79.70
2019-01-02T11:25:14.612Z,79.70
2019-01-02T11:26:34.298Z,79.70
2019-01-02T11:27:50.736Z,79.80
2019-01-02T11:29:07.062Z,79.80
2019-01-02T11:30:23.439Z,79.90
2019-01-02T11:31:39.885Z,80.20
2019-01-02T11:32:56.441Z,80.70
2019-01-02T11:34:13.672Z,80.80
2019-01-02T11:35:30.209Z,81.00
2019-01-02T11:36:46.624Z,81.00
2019-01-02T11:38:03.213Z,81.00
2019-01-02T11:39:19.629Z,81.10
2019-01-02T11:40:36.170Z,81.20
2019-01-02T11:41:52.785Z,81.40
2019-01-02T11:43:10.137Z,81.10
2019-01-02T11:44:26.614Z,81.10
2019-01-02T11:45:43.290Z,81.40
2019-01-02T11:46:59.654Z,81.20
2019-01-02T11:48:16.424Z,80.90
2019-01-02T11:49:33.509Z,81.30
2019-01-02T11:50:50.047Z,81.30
2019-01-02T11:52:06.860Z,81.60
2019-01-02T11:53:23.234Z,81.50
2019-01-02T11:54:39.729Z,81.50
2019-01-02T11:55:56.363Z,81.10
2019-01-02T11:57:12.855Z,81.30
2019-01-02T11:58:30.032Z,81.30
2019-01-02T11:59:46.553Z,80.80
2019-01-02T12:01:03.757Z,81.10
2019-01-02T12:02:20.266Z,81.70
2019-01-02T12:03:37.108Z,81.30
2019-01-02T12:04:53.703Z,81.10
2019-01-02T12:06:10.412Z,80.70
2019-01-02T12:07:27.576Z,80.40
2019-01-02T12:08:44.372Z,80.60
2019-01-02T12:10:01.450Z,81.00
2019-01-02T12:11:18.417Z,80.50
2019-01-02T12:12:35.016Z,80.20
2019-01-02T12:13:52.716Z,80.30
2019-01-02T12:15:09.045Z,80.00
2019-01-02T12:16:26.096Z,79.60
2019-01-02T12:17:42.697Z,79.70
2019-01-02T12:18:59.022Z,79.70
2019-01-02T12:20:15.500Z,79.30
2019-01-02T12:21:32.187Z,79.30
2019-01-02T12:22:48.484Z,79.40
2019-01-02T12:24:04.965Z,79.30
2019-01-02T12:25:21.927Z,78.70
2019-01-02T12:26:38.520Z,78.60
2019-01-02T12:27:55.111Z,78.60
2019-01-02T12:29:11.502Z,78.40
2019-01-02T12:30:28.378Z,78.20
2019-01-02T12:31:45.110Z,78.20
2019-01-02T12:33:01.410Z,78.10
2019-01-02T12:34:18.652Z,77.90
2019-01-02T12:35:35.341Z,77.40
2019-01-02T12:36:52.553Z,77.30
2019-01-02T12:38:09.605Z,76.90
2019-01-02T12:39:26.444Z,76.60
2019-01-02T12:40:43.449Z,76.20
2019-01-02T12:42:00.328Z,76.30
2019-01-02T12:43:16.805Z,77.30
2019-01-02T12:44:33.260Z,77.80
2019-01-02T12:45:50.137Z,78.60
2019-01-02T12:47:06.480Z,79.30
2019-01-02T12:48:23.293Z,80.40
2019-01-02T12:49:40.213Z,81.70
2019-01-02T12:50:56.644Z,82.90
2019-01-02T12:52:13.109Z,83.80
2019-01-02T12:53:30.549Z,84.40
2019-01-02T12:54:47.071Z,85.40
2019-01-02T12:56:04.097Z,86.00
2019-01-02T12:57:20.377Z,87.20
2019-01-02T12:58:36.837Z,88.70
2019-01-02T12:59:53.876Z,90.30
2019-01-02T13:01:10.393Z,91.00
2019-01-02T13:02:26.827Z,91.30
2019-01-02T13:03:44.036Z,91.60
2019-01-02T13:05:00.578Z,92.10
2019-01-02T13:06:19.728Z,92.40
2019-01-02T13:07:36.257Z,92.60
2019-01-02T13:08:53.385Z,92.50
2019-01-02T13:10:09.636Z,92.70
2019-01-02T13:11:26.241Z,92.80
2019-01-02T13:12:43.396Z,92.80
2019-01-02T13:13:59.729Z,92.80
2019-01-02T13:15:16.080Z,92.80
2019-01-02T13:16:32.561Z,92.90
2019-01-02T13:17:49.680Z,92.70
2019-01-02T13:19:06.343Z,92.70
2019-01-02T13:20:23.472Z,92.50
2019-01-02T13:21:40.628Z,92.20
2019-01-02T13:24:58.286Z,92.00
2019-01-02T13:26:14.565Z,91.90
2019-01-02T13:27:31.909Z,91.20
2019-01-02T13:28:48.883Z,91.00
2019-01-02T13:30:05.381Z,90.80
2019-01-02T13:31:22.456Z,90.70
2019-01-02T13:32:40.333Z,90.60
2019-01-02T13:33:57.358Z,90.20
2019-01-02T13:35:13.865Z,89.40
2019-01-02T13:36:30.554Z,89.00
2019-01-02T13:37:47.407Z,88.70
2019-01-02T13:39:04.385Z,88.60
2019-01-02T13:40:21.185Z,88.80
2019-01-02T13:41:37.730Z,88.60
2019-01-02T13:42:54.196Z,88.20
2019-01-02T13:44:10.520Z,87.80
2019-01-02T13:45:27.367Z,88.00
2019-01-02T13:46:43.775Z,87.50
2019-01-02T13:48:01.048Z,87.50
2019-01-02T13:49:18.009Z,87.50
2019-01-02T13:50:34.497Z,86.70
2019-01-02T13:51:51.657Z,86.70
2019-01-02T13:53:08.033Z,86.70
2019-01-02T13:54:24.641Z,86.30
2019-01-02T13:55:41.392Z,86.20
2019-01-02T13:56:57.644Z,85.70
2019-01-02T13:58:14.241Z,85.90
2019-01-02T13:59:31.861Z,86.10
2019-01-02T14:00:48.628Z,86.20
2019-01-02T14:02:05.478Z,85.70
2019-01-02T14:03:20.736Z,85.10
2019-01-02T14:04:45.712Z,85.20
2019-01-02T14:06:02.065Z,85.10
2019-01-02T14:07:18.501Z,84.50
2019-01-02T14:08:35.093Z,83.80
2019-01-02T14:09:51.953Z,83.70
2019-01-02T14:11:08.361Z,84.00
2019-01-02T14:12:25.559Z,83.90
2019-01-02T14:13:42.044Z,83.80
2019-01-02T14:14:58.908Z,83.10
2019-01-02T14:16:15.257Z,82.80
2019-01-02T14:17:31.816Z,82.10
2019-01-02T14:18:48.185Z,81.40
2019-01-02T14:20:05.056Z,81.70
2019-01-02T14:21:21.621Z,81.90
2019-01-02T14:22:37.909Z,82.30
2019-01-02T14:23:54.612Z,82.40
2019-01-02T14:25:11.711Z,82.20
2019-01-02T14:26:28.913Z,82.10
2019-01-02T14:27:46.201Z,82.20
2019-01-02T14:29:03.366Z,82.70
2019-01-02T14:30:20.277Z,82.80
2019-01-02T14:31:38.768Z,83.40
2019-01-02T14:32:55.954Z,83.60
2019-01-02T14:34:13.332Z,83.60
2019-01-02T14:35:30.011Z,83.70
2019-01-02T14:36:46.312Z,84.10
2019-01-02T14:38:02.922Z,84.10
2019-01-02T14:39:19.866Z,84.00
2019-01-02T14:40:36.290Z,84.00
2019-01-02T14:41:52.950Z,84.30
2019-01-02T14:43:09.353Z,84.40
2019-01-02T14:44:25.811Z,84.20
2019-01-02T14:45:42.220Z,84.10
2019-01-02T14:46:58.792Z,84.10
2019-01-02T14:48:15.612Z,83.90
2019-01-02T14:49:32.238Z,84.10
2019-01-02T14:50:48.828Z,83.80
2019-01-02T14:52:05.625Z,83.70
2019-01-02T14:53:22.808Z,83.20
2019-01-02T14:54:39.333Z,83.20
2019-01-02T14:55:56.085Z,83.20
2019-01-02T14:57:12.587Z,82.80
2019-01-02T14:58:28.940Z,82.80
2019-01-02T14:59:48.120Z,82.40
2019-01-02T15:01:04.492Z,82.20
2019-01-02T15:02:21.649Z,81.90
2019-01-02T15:03:38.129Z,81.80
2019-01-02T15:04:55.310Z,81.80
2019-01-02T15:06:11.746Z,81.20
2019-01-02T15:07:28.397Z,80.90
2019-01-02T15:08:44.742Z,80.60
2019-01-02T15:10:01.253Z,80.40
2019-01-02T15:11:17.542Z,80.50
2019-01-02T15:12:34.208Z,80.50
2019-01-02T15:13:50.719Z,80.30
2019-01-02T15:15:07.236Z,80.30
2019-01-02T15:16:23.995Z,80.50
2019-01-02T15:17:40.538Z,80.60
2019-01-02T15:18:57.370Z,80.60
2019-01-02T15:20:14.280Z,80.60
2019-01-02T15:21:30.764Z,81.20
2019-01-02T15:22:47.076Z,80.90
2019-01-02T15:24:03.705Z,81.00
2019-01-02T15:25:20.496Z,81.10
2019-01-02T15:26:37.004Z,81.30
2019-01-02T15:27:57.437Z,81.10
2019-01-02T15:29:14.158Z,81.00
2019-01-02T15:30:30.945Z,81.00
2019-01-02T15:31:47.532Z,80.60
2019-01-02T15:33:03.788Z,80.20
2019-01-02T15:34:20.292Z,80.00
2019-01-02T15:35:36.794Z,79.80
2019-01-02T15:36:53.156Z,80.30
2019-01-02T15:38:09.787Z,79.60
2019-01-02T15:39:26.173Z,79.70
2019-01-02T15:40:42.588Z,79.50
2019-01-02T15:41:58.933Z,79.60
2019-01-02T15:43:15.305Z,79.80
2019-01-02T15:44:31.840Z,79.70
2019-01-02T15:45:48.146Z,79.50
2019-01-02T15:47:08.546Z,79.60
2019-01-02T15:48:24.163Z,79.80
2019-01-02T15:49:40.656Z,79.90
2019-01-02T15:50:58.724Z,80.30
2019-01-02T15:52:13.973Z,80.60
2019-01-02T15:53:38.158Z,80.90
2019-01-02T15:54:54.927Z,81.20
2019-01-02T15:56:11.356Z,81.40
2019-01-02T15:57:27.704Z,81.60
2019-01-02T15:58:44.109Z,82.00
2019-01-02T16:00:00.505Z,82.40
2019-01-02T16:01:16.941Z,82.70
2019-01-02T16:02:33.781Z,83.40
2019-01-02T16:03:50.194Z,83.90